sensor_id;sensor_type;location;lat;lon;timestamp;temperature;humidity
27226;DHT22;14732;51.074;3.788;2022-09-13T00:01:17;20.20;99.90
27226;DHT22;14732;51.074;3.788;2022-09-13T00:03:42;20.30;99.90
27226;DHT22;14732;51.074;3.788;2022-09-13T00:06:15;20.30;99.90
27226;DHT22;14732;51.074;3.788;2022-09-13T00:08:41;20.40;99.90
27226;DHT22;14732;51.074;3.788;2022-09-13T00:11:14;20.50;99.90
27226;DHT22;14732;51.074;3.788;2022-09-13T00:13:40;20.60;99.90
27226;DHT22;14732;51.074;3.788;2022-09-13T00:16:11;20.60;99.90
27226;DHT22;14732;51.074;3.788;2022-09-13T00:18:37;20.60;99.90
27226;DHT22;14732;51.074;3.788;2022-09-13T00:21:07;20.40;99.90
27226;DHT22;14732;51.074;3.788;2022-09-13T00:23:33;20.20;99.90
27226;DHT22;14732;51.074;3.788;2022-09-13T00:26:04;20.00;99.90
27226;DHT22;14732;51.074;3.788;2022-09-13T00:28:30;20.20;99.90
27226;DHT22;14732;51.074;3.788;2022-09-13T00:31:02;20.30;99.90
27226;DHT22;14732;51.074;3.788;2022-09-13T00:33:27;20.30;99.90
27226;DHT22;14732;51.074;3.788;2022-09-13T00:35:53;20.30;99.90
27226;DHT22;14732;51.074;3.788;2022-09-13T00:38:19;20.30;99.90
27226;DHT22;14732;51.074;3.788;2022-09-13T00:40:44;20.40;99.90
27226;DHT22;14732;51.074;3.788;2022-09-13T00:43:18;20.40;99.90
27226;DHT22;14732;51.074;3.788;2022-09-13T00:45:46;20.30;99.90
27226;DHT22;14732;51.074;3.788;2022-09-13T00:48:22;20.20;99.90
27226;DHT22;14732;51.074;3.788;2022-09-13T00:50:52;20.20;99.90
27226;DHT22;14732;51.074;3.788;2022-09-13T00:53:31;20.20;99.90
27226;DHT22;14732;51.074;3.788;2022-09-13T00:56:24;20.30;99.90
27226;DHT22;14732;51.074;3.788;2022-09-13T00:59:01;20.40;99.90
27226;DHT22;14732;51.074;3.788;2022-09-13T01:01:40;20.40;99.90
27226;DHT22;14732;51.074;3.788;2022-09-13T01:04:08;20.30;99.90
27226;DHT22;14732;51.074;3.788;2022-09-13T01:06:35;20.20;99.90
27226;DHT22;14732;51.074;3.788;2022-09-13T01:09:04;20.20;99.90
27226;DHT22;14732;51.074;3.788;2022-09-13T01:11:32;20.20;99.90
27226;DHT22;14732;51.074;3.788;2022-09-13T01:14:02;20.20;99.90
27226;DHT22;14732;51.074;3.788;2022-09-13T01:16:27;20.20;99.90
27226;DHT22;14732;51.074;3.788;2022-09-13T01:18:53;20.20;99.90
27226;DHT22;14732;51.074;3.788;2022-09-13T01:21:59;20.10;99.90
27226;DHT22;14732;51.074;3.788;2022-09-13T01:32:37;20.10;99.90
27226;DHT22;14732;51.074;3.788;2022-09-13T01:43:11;20.00;99.90
27226;DHT22;14732;51.074;3.788;2022-09-13T01:50:58;19.90;99.90
27226;DHT22;14732;51.074;3.788;2022-09-13T01:53:55;20.00;99.90
27226;DHT22;14732;51.074;3.788;2022-09-13T01:59:04;19.90;99.90
27226;DHT22;14732;51.074;3.788;2022-09-13T02:01:34;19.90;99.90
27226;DHT22;14732;51.074;3.788;2022-09-13T02:04:17;19.90;99.90
27226;DHT22;14732;51.074;3.788;2022-09-13T02:09:23;19.90;99.90
27226;DHT22;14732;51.074;3.788;2022-09-13T02:11:55;19.90;99.90
27226;DHT22;14732;51.074;3.788;2022-09-13T02:14:34;19.90;99.90
27226;DHT22;14732;51.074;3.788;2022-09-13T02:17:08;19.80;99.90
27226;DHT22;14732;51.074;3.788;2022-09-13T02:19:44;19.90;99.90
27226;DHT22;14732;51.074;3.788;2022-09-13T02:22:13;19.90;99.90
27226;DHT22;14732;51.074;3.788;2022-09-13T02:24:43;20.00;99.90
27226;DHT22;14732;51.074;3.788;2022-09-13T02:27:18;20.10;99.90
27226;DHT22;14732;51.074;3.788;2022-09-13T02:29:46;20.00;99.90
27226;DHT22;14732;51.074;3.788;2022-09-13T02:32:26;19.90;99.90
27226;DHT22;14732;51.074;3.788;2022-09-13T02:35:01;19.90;99.90
27226;DHT22;14732;51.074;3.788;2022-09-13T02:37:30;19.80;99.90
27226;DHT22;14732;51.074;3.788;2022-09-13T02:40:06;19.80;99.90
27226;DHT22;14732;51.074;3.788;2022-09-13T02:42:47;19.80;99.90
27226;DHT22;14732;51.074;3.788;2022-09-13T02:45:14;19.80;99.90
27226;DHT22;14732;51.074;3.788;2022-09-13T02:47:58;19.90;99.90
27226;DHT22;14732;51.074;3.788;2022-09-13T02:50:41;19.90;99.90
27226;DHT22;14732;51.074;3.788;2022-09-13T02:56:04;19.70;99.90
27226;DHT22;14732;51.074;3.788;2022-09-13T03:01:17;19.70;99.90
27226;DHT22;14732;51.074;3.788;2022-09-13T03:03:43;19.70;99.90
27226;DHT22;14732;51.074;3.788;2022-09-13T03:06:09;19.70;99.90
27226;DHT22;14732;51.074;3.788;2022-09-13T03:08:35;19.70;99.90
27226;DHT22;14732;51.074;3.788;2022-09-13T03:25:05;19.70;99.90
27226;DHT22;14732;51.074;3.788;2022-09-13T03:30:29;19.60;99.90
27226;DHT22;14732;51.074;3.788;2022-09-13T03:36:24;19.70;99.90
27226;DHT22;14732;51.074;3.788;2022-09-13T03:39:02;19.70;99.90
27226;DHT22;14732;51.074;3.788;2022-09-13T03:41:38;19.70;99.90
27226;DHT22;14732;51.074;3.788;2022-09-13T03:44:07;19.70;99.90
27226;DHT22;14732;51.074;3.788;2022-09-13T03:46:38;19.70;99.90
27226;DHT22;14732;51.074;3.788;2022-09-13T03:49:10;19.70;99.90
27226;DHT22;14732;51.074;3.788;2022-09-13T03:51:37;19.60;99.90
27226;DHT22;14732;51.074;3.788;2022-09-13T03:54:09;19.70;99.90
27226;DHT22;14732;51.074;3.788;2022-09-13T03:56:35;19.80;99.90
27226;DHT22;14732;51.074;3.788;2022-09-13T03:59:01;19.80;99.90
27226;DHT22;14732;51.074;3.788;2022-09-13T04:01:27;19.80;99.90
27226;DHT22;14732;51.074;3.788;2022-09-13T04:03:53;19.60;99.90
27226;DHT22;14732;51.074;3.788;2022-09-13T04:06:19;19.50;99.90
27226;DHT22;14732;51.074;3.788;2022-09-13T04:08:44;19.50;99.90
27226;DHT22;14732;51.074;3.788;2022-09-13T04:11:10;19.50;99.90
27226;DHT22;14732;51.074;3.788;2022-09-13T04:13:36;19.50;99.90
27226;DHT22;14732;51.074;3.788;2022-09-13T04:16:04;19.50;99.90
27226;DHT22;14732;51.074;3.788;2022-09-13T04:18:31;19.60;99.90
27226;DHT22;14732;51.074;3.788;2022-09-13T04:20:59;19.60;99.90
27226;DHT22;14732;51.074;3.788;2022-09-13T04:23:25;19.80;99.90
27226;DHT22;14732;51.074;3.788;2022-09-13T04:25:52;19.80;99.90
27226;DHT22;14732;51.074;3.788;2022-09-13T04:28:18;19.80;99.90
27226;DHT22;14732;51.074;3.788;2022-09-13T04:30:45;19.70;99.90
27226;DHT22;14732;51.074;3.788;2022-09-13T04:33:11;19.70;99.90
27226;DHT22;14732;51.074;3.788;2022-09-13T04:35:37;19.60;99.90
27226;DHT22;14732;51.074;3.788;2022-09-13T04:38:04;19.60;99.90
27226;DHT22;14732;51.074;3.788;2022-09-13T04:40:30;19.60;99.90
27226;DHT22;14732;51.074;3.788;2022-09-13T04:42:56;19.70;99.90
27226;DHT22;14732;51.074;3.788;2022-09-13T04:45:22;19.60;99.90
27226;DHT22;14732;51.074;3.788;2022-09-13T04:47:52;19.60;99.90
27226;DHT22;14732;51.074;3.788;2022-09-13T04:50:22;19.50;99.90
27226;DHT22;14732;51.074;3.788;2022-09-13T04:52:47;19.50;99.90
27226;DHT22;14732;51.074;3.788;2022-09-13T04:55:14;19.60;99.90
27226;DHT22;14732;51.074;3.788;2022-09-13T04:57:40;19.50;99.90
27226;DHT22;14732;51.074;3.788;2022-09-13T05:00:07;19.50;99.90
27226;DHT22;14732;51.074;3.788;2022-09-13T05:02:33;19.50;99.90
27226;DHT22;14732;51.074;3.788;2022-09-13T05:04:58;19.50;99.90
27226;DHT22;14732;51.074;3.788;2022-09-13T05:07:24;19.50;99.90
27226;DHT22;14732;51.074;3.788;2022-09-13T05:09:49;19.50;99.90
27226;DHT22;14732;51.074;3.788;2022-09-13T05:12:15;19.50;99.90
27226;DHT22;14732;51.074;3.788;2022-09-13T05:14:41;19.60;99.90
27226;DHT22;14732;51.074;3.788;2022-09-13T05:17:07;19.60;99.90
27226;DHT22;14732;51.074;3.788;2022-09-13T05:19:32;19.60;99.90
27226;DHT22;14732;51.074;3.788;2022-09-13T05:21:59;19.50;99.90
27226;DHT22;14732;51.074;3.788;2022-09-13T05:24:25;19.50;99.90
27226;DHT22;14732;51.074;3.788;2022-09-13T05:26:51;19.50;99.90
27226;DHT22;14732;51.074;3.788;2022-09-13T05:29:16;19.60;99.90
27226;DHT22;14732;51.074;3.788;2022-09-13T05:31:42;19.60;99.90
27226;DHT22;14732;51.074;3.788;2022-09-13T05:34:11;19.80;99.90
27226;DHT22;14732;51.074;3.788;2022-09-13T05:36:37;19.80;99.90
27226;DHT22;14732;51.074;3.788;2022-09-13T05:39:04;19.70;99.90
27226;DHT22;14732;51.074;3.788;2022-09-13T05:41:30;19.60;99.90
27226;DHT22;14732;51.074;3.788;2022-09-13T05:43:56;19.40;99.90
27226;DHT22;14732;51.074;3.788;2022-09-13T05:46:22;19.40;99.90
27226;DHT22;14732;51.074;3.788;2022-09-13T05:48:48;19.30;99.90
27226;DHT22;14732;51.074;3.788;2022-09-13T05:51:19;19.30;99.90
27226;DHT22;14732;51.074;3.788;2022-09-13T05:53:50;19.50;99.90
27226;DHT22;14732;51.074;3.788;2022-09-13T05:56:18;19.50;99.90
27226;DHT22;14732;51.074;3.788;2022-09-13T05:58:46;19.60;99.90
27226;DHT22;14732;51.074;3.788;2022-09-13T06:01:19;19.60;99.90
27226;DHT22;14732;51.074;3.788;2022-09-13T06:03:47;19.70;99.90
27226;DHT22;14732;51.074;3.788;2022-09-13T06:06:14;19.70;99.90
27226;DHT22;14732;51.074;3.788;2022-09-13T06:08:40;19.70;99.90
27226;DHT22;14732;51.074;3.788;2022-09-13T06:11:08;19.80;99.90
27226;DHT22;14732;51.074;3.788;2022-09-13T06:13:34;19.90;99.90
27226;DHT22;14732;51.074;3.788;2022-09-13T06:16:03;19.90;99.90
27226;DHT22;14732;51.074;3.788;2022-09-13T06:18:29;19.90;99.90
27226;DHT22;14732;51.074;3.788;2022-09-13T06:21:00;20.00;99.90
27226;DHT22;14732;51.074;3.788;2022-09-13T06:23:26;20.00;99.90
27226;DHT22;14732;51.074;3.788;2022-09-13T06:26:04;20.00;99.90
27226;DHT22;14732;51.074;3.788;2022-09-13T06:28:30;20.10;99.90
27226;DHT22;14732;51.074;3.788;2022-09-13T06:31:15;20.10;99.90
27226;DHT22;14732;51.074;3.788;2022-09-13T06:33:42;20.10;99.90
27226;DHT22;14732;51.074;3.788;2022-09-13T06:36:10;20.10;99.90
27226;DHT22;14732;51.074;3.788;2022-09-13T06:38:38;20.10;99.90
27226;DHT22;14732;51.074;3.788;2022-09-13T06:41:09;20.20;99.90
27226;DHT22;14732;51.074;3.788;2022-09-13T06:43:35;20.40;99.90
27226;DHT22;14732;51.074;3.788;2022-09-13T06:46:21;20.40;99.90
27226;DHT22;14732;51.074;3.788;2022-09-13T06:48:47;20.20;99.90
27226;DHT22;14732;51.074;3.788;2022-09-13T06:51:18;20.10;99.90
27226;DHT22;14732;51.074;3.788;2022-09-13T06:53:45;20.10;99.90
27226;DHT22;14732;51.074;3.788;2022-09-13T06:56:14;20.20;99.90
27226;DHT22;14732;51.074;3.788;2022-09-13T06:58:42;20.30;99.90
27226;DHT22;14732;51.074;3.788;2022-09-13T07:01:19;20.60;99.90
27226;DHT22;14732;51.074;3.788;2022-09-13T07:03:47;20.90;99.90
27226;DHT22;14732;51.074;3.788;2022-09-13T07:06:18;21.10;99.90
27226;DHT22;14732;51.074;3.788;2022-09-13T07:08:46;21.30;99.90
27226;DHT22;14732;51.074;3.788;2022-09-13T07:11:14;21.50;99.90
27226;DHT22;14732;51.074;3.788;2022-09-13T07:13:40;21.60;99.90
27226;DHT22;14732;51.074;3.788;2022-09-13T07:16:10;21.80;99.90
27226;DHT22;14732;51.074;3.788;2022-09-13T07:18:36;21.90;99.90
27226;DHT22;14732;51.074;3.788;2022-09-13T07:21:07;21.90;99.90
27226;DHT22;14732;51.074;3.788;2022-09-13T07:23:34;22.00;99.90
27226;DHT22;14732;51.074;3.788;2022-09-13T07:26:01;22.20;99.90
27226;DHT22;14732;51.074;3.788;2022-09-13T07:28:31;22.40;99.90
27226;DHT22;14732;51.074;3.788;2022-09-13T07:31:04;22.50;99.90
27226;DHT22;14732;51.074;3.788;2022-09-13T07:33:30;22.60;99.90
27226;DHT22;14732;51.074;3.788;2022-09-13T07:35:57;22.70;99.90
27226;DHT22;14732;51.074;3.788;2022-09-13T07:38:24;22.80;99.90
27226;DHT22;14732;51.074;3.788;2022-09-13T07:40:55;23.00;99.90
27226;DHT22;14732;51.074;3.788;2022-09-13T07:43:24;23.20;99.90
27226;DHT22;14732;51.074;3.788;2022-09-13T07:48:27;23.70;99.90
27226;DHT22;14732;51.074;3.788;2022-09-13T07:51:05;24.20;99.90
27226;DHT22;14732;51.074;3.788;2022-09-13T07:53:32;24.50;99.90
27226;DHT22;14732;51.074;3.788;2022-09-13T07:56:35;24.80;99.90
27226;DHT22;14732;51.074;3.788;2022-09-13T07:58:53;24.90;99.90
27226;DHT22;14732;51.074;3.788;2022-09-13T08:01:27;25.20;99.90
27226;DHT22;14732;51.074;3.788;2022-09-13T08:03:57;25.40;99.90
27226;DHT22;14732;51.074;3.788;2022-09-13T08:06:25;25.40;99.90
27226;DHT22;14732;51.074;3.788;2022-09-13T08:08:51;25.60;99.90
27226;DHT22;14732;51.074;3.788;2022-09-13T08:11:18;25.40;99.90
27226;DHT22;14732;51.074;3.788;2022-09-13T08:13:48;25.60;99.90
27226;DHT22;14732;51.074;3.788;2022-09-13T08:16:15;25.80;99.90
27226;DHT22;14732;51.074;3.788;2022-09-13T08:18:46;25.10;99.90
27226;DHT22;14732;51.074;3.788;2022-09-13T08:21:12;25.20;99.90
27226;DHT22;14732;51.074;3.788;2022-09-13T08:23:38;25.60;99.90
27226;DHT22;14732;51.074;3.788;2022-09-13T08:26:04;25.60;99.90
27226;DHT22;14732;51.074;3.788;2022-09-13T08:28:34;25.90;99.90
27226;DHT22;14732;51.074;3.788;2022-09-13T08:31:14;26.10;99.90
27226;DHT22;14732;51.074;3.788;2022-09-13T08:33:46;26.00;99.90
27226;DHT22;14732;51.074;3.788;2022-09-13T08:36:13;26.20;99.90
27226;DHT22;14732;51.074;3.788;2022-09-13T08:38:39;25.80;99.90
27226;DHT22;14732;51.074;3.788;2022-09-13T08:46:42;26.00;99.90
27226;DHT22;14732;51.074;3.788;2022-09-13T08:54:13;25.00;99.90
27226;DHT22;14732;51.074;3.788;2022-09-13T08:56:57;25.00;99.90
27226;DHT22;14732;51.074;3.788;2022-09-13T08:59:43;24.80;99.90
27226;DHT22;14732;51.074;3.788;2022-09-13T09:05:24;25.60;99.90
27226;DHT22;14732;51.074;3.788;2022-09-13T09:08:03;26.10;99.90
27226;DHT22;14732;51.074;3.788;2022-09-13T09:10:47;26.50;99.90
27226;DHT22;14732;51.074;3.788;2022-09-13T09:13:34;26.70;99.90
27226;DHT22;14732;51.074;3.788;2022-09-13T09:16:19;27.40;99.90
27226;DHT22;14732;51.074;3.788;2022-09-13T09:18:50;28.20;99.90
27226;DHT22;14732;51.074;3.788;2022-09-13T09:21:17;29.50;99.90
27226;DHT22;14732;51.074;3.788;2022-09-13T09:23:50;29.70;99.90
27226;DHT22;14732;51.074;3.788;2022-09-13T09:28:59;31.60;99.90
27226;DHT22;14732;51.074;3.788;2022-09-13T09:31:47;31.50;99.90
27226;DHT22;14732;51.074;3.788;2022-09-13T09:34:21;30.50;99.90
27226;DHT22;14732;51.074;3.788;2022-09-13T09:37:06;30.00;99.90
27226;DHT22;14732;51.074;3.788;2022-09-13T09:39:33;29.60;99.90
27226;DHT22;14732;51.074;3.788;2022-09-13T09:42:14;29.10;99.90
27226;DHT22;14732;51.074;3.788;2022-09-13T09:44:44;28.40;99.90
27226;DHT22;14732;51.074;3.788;2022-09-13T09:47:12;28.10;99.90
27226;DHT22;14732;51.074;3.788;2022-09-13T09:50:02;28.10;99.90
27226;DHT22;14732;51.074;3.788;2022-09-13T09:53:20;27.80;99.90
27226;DHT22;14732;51.074;3.788;2022-09-13T09:55:31;27.80;99.90
27226;DHT22;14732;51.074;3.788;2022-09-13T09:58:01;27.70;99.90
27226;DHT22;14732;51.074;3.788;2022-09-13T10:00:31;27.50;99.90
27226;DHT22;14732;51.074;3.788;2022-09-13T10:03:02;27.30;99.90
27226;DHT22;14732;51.074;3.788;2022-09-13T10:05:28;27.20;99.90
27226;DHT22;14732;51.074;3.788;2022-09-13T10:08:07;27.10;99.90
27226;DHT22;14732;51.074;3.788;2022-09-13T10:10:42;27.00;99.90
27226;DHT22;14732;51.074;3.788;2022-09-13T10:13:17;27.10;99.90
27226;DHT22;14732;51.074;3.788;2022-09-13T10:15:58;27.40;99.90
27226;DHT22;14732;51.074;3.788;2022-09-13T10:18:32;27.30;99.90
27226;DHT22;14732;51.074;3.788;2022-09-13T10:23:28;27.80;99.90
27226;DHT22;14732;51.074;3.788;2022-09-13T10:26:21;28.10;99.90
27226;DHT22;14732;51.074;3.788;2022-09-13T10:31:50;28.40;99.90
27226;DHT22;14732;51.074;3.788;2022-09-13T10:34:32;28.10;99.90
27226;DHT22;14732;51.074;3.788;2022-09-13T10:37:03;27.90;99.90
27226;DHT22;14732;51.074;3.788;2022-09-13T10:39:33;27.70;99.90
27226;DHT22;14732;51.074;3.788;2022-09-13T10:42:01;27.70;99.90
27226;DHT22;14732;51.074;3.788;2022-09-13T10:44:32;27.80;99.90
27226;DHT22;14732;51.074;3.788;2022-09-13T10:47:05;28.10;99.90
27226;DHT22;14732;51.074;3.788;2022-09-13T10:49:52;28.40;99.90
27226;DHT22;14732;51.074;3.788;2022-09-13T10:52:43;28.50;99.90
27226;DHT22;14732;51.074;3.788;2022-09-13T10:57:45;28.20;99.90
27226;DHT22;14732;51.074;3.788;2022-09-13T11:00:15;27.90;99.90
27226;DHT22;14732;51.074;3.788;2022-09-13T11:11:18;27.60;99.90
27226;DHT22;14732;51.074;3.788;2022-09-13T11:22:08;28.00;99.90
27226;DHT22;14732;51.074;3.788;2022-09-13T11:27:49;28.20;99.90
27226;DHT22;14732;51.074;3.788;2022-09-13T11:30:22;28.40;99.90
27226;DHT22;14732;51.074;3.788;2022-09-13T11:40:46;28.00;99.90
27226;DHT22;14732;51.074;3.788;2022-09-13T11:54:22;27.80;99.90
27226;DHT22;14732;51.074;3.788;2022-09-13T11:56:56;27.90;99.90
27226;DHT22;14732;51.074;3.788;2022-09-13T11:59:39;27.90;99.90
27226;DHT22;14732;51.074;3.788;2022-09-13T12:05:18;28.10;99.90
27226;DHT22;14732;51.074;3.788;2022-09-13T12:07:56;28.10;99.90
27226;DHT22;14732;51.074;3.788;2022-09-13T12:10:36;28.10;99.90
27226;DHT22;14732;51.074;3.788;2022-09-13T12:13:08;28.20;99.90
27226;DHT22;14732;51.074;3.788;2022-09-13T12:15:36;28.00;99.90
27226;DHT22;14732;51.074;3.788;2022-09-13T12:18:28;27.90;99.90
27226;DHT22;14732;51.074;3.788;2022-09-13T12:21:08;27.70;99.90
27226;DHT22;14732;51.074;3.788;2022-09-13T12:26:19;27.30;99.90
27226;DHT22;14732;51.074;3.788;2022-09-13T12:29:02;27.10;99.90
27226;DHT22;14732;51.074;3.788;2022-09-13T12:31:31;26.90;99.90
27226;DHT22;14732;51.074;3.788;2022-09-13T12:33:57;26.70;99.90
27226;DHT22;14732;51.074;3.788;2022-09-13T12:56:51;25.70;99.90
27226;DHT22;14732;51.074;3.788;2022-09-13T13:02:26;25.40;99.90
27226;DHT22;14732;51.074;3.788;2022-09-13T13:04:56;25.30;99.90
27226;DHT22;14732;51.074;3.788;2022-09-13T13:07:24;25.50;99.90
27226;DHT22;14732;51.074;3.788;2022-09-13T13:09:53;25.70;99.90
27226;DHT22;14732;51.074;3.788;2022-09-13T13:15:02;26.00;99.90
27226;DHT22;14732;51.074;3.788;2022-09-13T13:17:49;26.10;99.90
27226;DHT22;14732;51.074;3.788;2022-09-13T13:21:02;26.10;99.90
27226;DHT22;14732;51.074;3.788;2022-09-13T13:23:37;26.20;99.90
27226;DHT22;14732;51.074;3.788;2022-09-13T13:33:54;26.00;99.90
27226;DHT22;14732;51.074;3.788;2022-09-13T13:42:01;26.00;99.90
27226;DHT22;14732;51.074;3.788;2022-09-13T13:55:01;25.60;99.90
27226;DHT22;14732;51.074;3.788;2022-09-13T14:05:48;25.70;99.90
27226;DHT22;14732;51.074;3.788;2022-09-13T14:19:44;25.20;99.90
27226;DHT22;14732;51.074;3.788;2022-09-13T14:22:22;25.20;99.90
27226;DHT22;14732;51.074;3.788;2022-09-13T14:24:55;25.10;99.90
27226;DHT22;14732;51.074;3.788;2022-09-13T14:27:26;25.10;99.90
27226;DHT22;14732;51.074;3.788;2022-09-13T14:30:01;25.20;99.90
27226;DHT22;14732;51.074;3.788;2022-09-13T14:32:31;25.30;99.90
27226;DHT22;14732;51.074;3.788;2022-09-13T14:35:06;25.30;99.90
27226;DHT22;14732;51.074;3.788;2022-09-13T14:37:46;25.40;99.90
27226;DHT22;14732;51.074;3.788;2022-09-13T14:40:23;25.40;99.90
27226;DHT22;14732;51.074;3.788;2022-09-13T14:42:52;25.40;99.90
27226;DHT22;14732;51.074;3.788;2022-09-13T14:45:20;25.20;99.90
27226;DHT22;14732;51.074;3.788;2022-09-13T14:50:30;24.70;99.90
27226;DHT22;14732;51.074;3.788;2022-09-13T14:53:03;24.60;99.90
27226;DHT22;14732;51.074;3.788;2022-09-13T14:55:36;24.50;99.90
27226;DHT22;14732;51.074;3.788;2022-09-13T14:58:06;24.30;99.90
27226;DHT22;14732;51.074;3.788;2022-09-13T15:00:49;24.20;99.90
27226;DHT22;14732;51.074;3.788;2022-09-13T15:03:17;24.10;99.90
27226;DHT22;14732;51.074;3.788;2022-09-13T15:05:56;23.90;99.90
27226;DHT22;14732;51.074;3.788;2022-09-13T15:10:57;24.30;99.90
27226;DHT22;14732;51.074;3.788;2022-09-13T15:13:23;24.30;99.90
27226;DHT22;14732;51.074;3.788;2022-09-13T15:15:49;24.30;99.90
27226;DHT22;14732;51.074;3.788;2022-09-13T15:21:01;24.20;99.90
27226;DHT22;14732;51.074;3.788;2022-09-13T15:26:12;24.40;99.90
27226;DHT22;14732;51.074;3.788;2022-09-13T15:31:10;24.60;99.90
27226;DHT22;14732;51.074;3.788;2022-09-13T15:33:36;24.50;99.90
27226;DHT22;14732;51.074;3.788;2022-09-13T15:38:58;24.20;99.90
27226;DHT22;14732;51.074;3.788;2022-09-13T15:41:52;24.30;99.90
27226;DHT22;14732;51.074;3.788;2022-09-13T15:44:18;24.40;99.90
27226;DHT22;14732;51.074;3.788;2022-09-13T15:46:49;24.60;99.90
27226;DHT22;14732;51.074;3.788;2022-09-13T15:49:21;24.70;99.90
27226;DHT22;14732;51.074;3.788;2022-09-13T15:51:52;24.70;99.90
27226;DHT22;14732;51.074;3.788;2022-09-13T15:54:18;24.70;99.90
27226;DHT22;14732;51.074;3.788;2022-09-13T15:56:45;24.60;99.90
27226;DHT22;14732;51.074;3.788;2022-09-13T15:59:19;24.60;99.90
27226;DHT22;14732;51.074;3.788;2022-09-13T16:01:47;24.60;99.90
27226;DHT22;14732;51.074;3.788;2022-09-13T16:04:13;24.50;99.90
27226;DHT22;14732;51.074;3.788;2022-09-13T16:06:39;24.50;99.90
27226;DHT22;14732;51.074;3.788;2022-09-13T16:11:44;23.70;99.90
27226;DHT22;14732;51.074;3.788;2022-09-13T16:14:10;23.70;99.90
27226;DHT22;14732;51.074;3.788;2022-09-13T16:16:36;23.50;99.90
27226;DHT22;14732;51.074;3.788;2022-09-13T16:19:01;23.40;99.90
27226;DHT22;14732;51.074;3.788;2022-09-13T16:21:27;23.40;99.90
27226;DHT22;14732;51.074;3.788;2022-09-13T16:23:54;23.40;99.90
27226;DHT22;14732;51.074;3.788;2022-09-13T16:26:19;23.50;99.90
27226;DHT22;14732;51.074;3.788;2022-09-13T16:28:45;23.40;99.90
27226;DHT22;14732;51.074;3.788;2022-09-13T16:31:11;23.50;99.90
27226;DHT22;14732;51.074;3.788;2022-09-13T16:33:38;23.40;99.90
27226;DHT22;14732;51.074;3.788;2022-09-13T16:36:04;23.30;99.90
27226;DHT22;14732;51.074;3.788;2022-09-13T16:38:30;23.40;99.90
27226;DHT22;14732;51.074;3.788;2022-09-13T16:40:55;23.50;99.90
27226;DHT22;14732;51.074;3.788;2022-09-13T16:43:21;23.40;99.90
27226;DHT22;14732;51.074;3.788;2022-09-13T16:45:47;23.30;99.90
27226;DHT22;14732;51.074;3.788;2022-09-13T16:48:14;23.20;99.90
27226;DHT22;14732;51.074;3.788;2022-09-13T16:50:41;23.10;99.90
27226;DHT22;14732;51.074;3.788;2022-09-13T16:53:07;23.10;99.90
27226;DHT22;14732;51.074;3.788;2022-09-13T16:55:33;23.30;99.90
27226;DHT22;14732;51.074;3.788;2022-09-13T16:57:59;23.40;99.90
27226;DHT22;14732;51.074;3.788;2022-09-13T17:00:25;23.40;99.90
27226;DHT22;14732;51.074;3.788;2022-09-13T17:02:56;23.50;99.90
27226;DHT22;14732;51.074;3.788;2022-09-13T17:05:22;23.40;99.90
27226;DHT22;14732;51.074;3.788;2022-09-13T17:07:49;23.30;99.90
27226;DHT22;14732;51.074;3.788;2022-09-13T17:10:15;23.10;99.90
27226;DHT22;14732;51.074;3.788;2022-09-13T17:12:41;23.10;99.90
27226;DHT22;14732;51.074;3.788;2022-09-13T17:15:08;23.00;99.90
27226;DHT22;14732;51.074;3.788;2022-09-13T17:17:34;23.00;99.90
27226;DHT22;14732;51.074;3.788;2022-09-13T17:20:06;22.90;99.90
27226;DHT22;14732;51.074;3.788;2022-09-13T17:22:33;22.90;99.90
27226;DHT22;14732;51.074;3.788;2022-09-13T17:24:59;22.70;99.90
27226;DHT22;14732;51.074;3.788;2022-09-13T17:27:26;22.60;99.90
27226;DHT22;14732;51.074;3.788;2022-09-13T17:29:51;22.70;99.90
27226;DHT22;14732;51.074;3.788;2022-09-13T17:32:18;22.70;99.90
27226;DHT22;14732;51.074;3.788;2022-09-13T17:34:44;22.70;99.90
27226;DHT22;14732;51.074;3.788;2022-09-13T17:37:10;22.70;99.90
27226;DHT22;14732;51.074;3.788;2022-09-13T17:39:35;22.50;99.90
27226;DHT22;14732;51.074;3.788;2022-09-13T17:42:01;22.50;99.90
27226;DHT22;14732;51.074;3.788;2022-09-13T17:44:27;22.50;99.90
27226;DHT22;14732;51.074;3.788;2022-09-13T17:46:53;22.50;99.90
27226;DHT22;14732;51.074;3.788;2022-09-13T17:49:18;22.30;99.90
27226;DHT22;14732;51.074;3.788;2022-09-13T17:51:44;22.10;99.90
27226;DHT22;14732;51.074;3.788;2022-09-13T17:54:10;21.80;99.90
27226;DHT22;14732;51.074;3.788;2022-09-13T17:56:45;21.70;99.90
27226;DHT22;14732;51.074;3.788;2022-09-13T17:59:19;21.60;99.90
27226;DHT22;14732;51.074;3.788;2022-09-13T18:01:48;21.60;99.90
27226;DHT22;14732;51.074;3.788;2022-09-13T18:04:15;21.60;99.90
27226;DHT22;14732;51.074;3.788;2022-09-13T18:06:41;21.50;99.90
27226;DHT22;14732;51.074;3.788;2022-09-13T18:09:08;21.60;99.90
27226;DHT22;14732;51.074;3.788;2022-09-13T18:11:34;21.70;99.90
27226;DHT22;14732;51.074;3.788;2022-09-13T18:14:01;21.80;99.90
27226;DHT22;14732;51.074;3.788;2022-09-13T18:16:27;21.80;99.90
27226;DHT22;14732;51.074;3.788;2022-09-13T18:18:54;21.80;99.90
27226;DHT22;14732;51.074;3.788;2022-09-13T18:21:22;21.80;99.90
27226;DHT22;14732;51.074;3.788;2022-09-13T18:23:49;21.70;99.90
27226;DHT22;14732;51.074;3.788;2022-09-13T18:26:17;21.60;99.90
27226;DHT22;14732;51.074;3.788;2022-09-13T18:28:45;21.60;99.90
27226;DHT22;14732;51.074;3.788;2022-09-13T18:31:15;21.60;99.90
27226;DHT22;14732;51.074;3.788;2022-09-13T18:33:42;21.40;99.90
27226;DHT22;14732;51.074;3.788;2022-09-13T18:36:10;21.40;99.90
27226;DHT22;14732;51.074;3.788;2022-09-13T18:38:39;21.50;99.90
27226;DHT22;14732;51.074;3.788;2022-09-13T18:41:10;21.30;99.90
27226;DHT22;14732;51.074;3.788;2022-09-13T18:43:37;21.30;99.90
27226;DHT22;14732;51.074;3.788;2022-09-13T18:46:06;21.20;99.90
27226;DHT22;14732;51.074;3.788;2022-09-13T18:48:34;21.20;99.90
27226;DHT22;14732;51.074;3.788;2022-09-13T18:51:00;21.20;99.90
27226;DHT22;14732;51.074;3.788;2022-09-13T18:53:27;21.10;99.90
27226;DHT22;14732;51.074;3.788;2022-09-13T18:55:53;21.00;99.90
27226;DHT22;14732;51.074;3.788;2022-09-13T18:58:21;21.00;99.90
27226;DHT22;14732;51.074;3.788;2022-09-13T19:00:57;21.10;99.90
27226;DHT22;14732;51.074;3.788;2022-09-13T19:03:23;21.20;99.90
27226;DHT22;14732;51.074;3.788;2022-09-13T19:05:49;21.20;99.90
27226;DHT22;14732;51.074;3.788;2022-09-13T19:08:16;21.20;99.90
27226;DHT22;14732;51.074;3.788;2022-09-13T19:10:43;21.20;99.90
27226;DHT22;14732;51.074;3.788;2022-09-13T19:13:08;21.20;99.90
27226;DHT22;14732;51.074;3.788;2022-09-13T19:15:34;21.10;99.90
27226;DHT22;14732;51.074;3.788;2022-09-13T19:18:00;20.90;99.90
27226;DHT22;14732;51.074;3.788;2022-09-13T19:20:26;20.70;99.90
27226;DHT22;14732;51.074;3.788;2022-09-13T19:22:52;20.70;99.90